sensor_id;sensor_type;location;lat;lon;timestamp;P1;durP1;ratioP1;P2;durP2;ratioP2
77287;SDS011;66345;42.694;23.346;2024-02-14T00:00:00;8.18;;;3.65;;
77287;SDS011;66345;42.694;23.346;2024-02-14T00:02:26;7.53;;;3.75;;
77287;SDS011;66345;42.694;23.346;2024-02-14T00:04:52;7.17;;;3.83;;
77287;SDS011;66345;42.694;23.346;2024-02-14T00:07:18;5.28;;;2.40;;
77287;SDS011;66345;42.694;23.346;2024-02-14T00:09:44;8.45;;;4.25;;
77287;SDS011;66345;42.694;23.346;2024-02-14T00:12:10;7.40;;;2.90;;
77287;SDS011;66345;42.694;23.346;2024-02-14T00:14:36;7.22;;;3.80;;
77287;SDS011;66345;42.694;23.346;2024-02-14T00:17:02;6.75;;;3.35;;
77287;SDS011;66345;42.694;23.346;2024-02-14T00:19:29;7.77;;;3.80;;
77287;SDS011;66345;42.694;23.346;2024-02-14T00:21:54;6.40;;;3.42;;
77287;SDS011;66345;42.694;23.346;2024-02-14T00:24:20;7.63;;;3.83;;
77287;SDS011;66345;42.694;23.346;2024-02-14T00:26:45;7.38;;;3.63;;
77287;SDS011;66345;42.694;23.346;2024-02-14T00:29:11;5.63;;;2.17;;
77287;SDS011;66345;42.694;23.346;2024-02-14T00:31:37;9.55;;;3.78;;
77287;SDS011;66345;42.694;23.346;2024-02-14T00:34:02;9.37;;;4.10;;
77287;SDS011;66345;42.694;23.346;2024-02-14T00:36:28;8.20;;;3.67;;
77287;SDS011;66345;42.694;23.346;2024-02-14T00:38:53;8.18;;;3.72;;
77287;SDS011;66345;42.694;23.346;2024-02-14T00:41:19;8.45;;;3.88;;
77287;SDS011;66345;42.694;23.346;2024-02-14T00:43:46;8.30;;;4.50;;
77287;SDS011;66345;42.694;23.346;2024-02-14T00:46:18;6.70;;;2.80;;
77287;SDS011;66345;42.694;23.346;2024-02-14T00:48:44;8.27;;;4.00;;
77287;SDS011;66345;42.694;23.346;2024-02-14T00:51:09;9.27;;;4.17;;
77287;SDS011;66345;42.694;23.346;2024-02-14T00:53:36;7.60;;;3.70;;
77287;SDS011;66345;42.694;23.346;2024-02-14T00:56:01;7.85;;;3.50;;
77287;SDS011;66345;42.694;23.346;2024-02-14T00:58:27;8.82;;;4.20;;
77287;SDS011;66345;42.694;23.346;2024-02-14T01:00:53;8.82;;;4.55;;
77287;SDS011;66345;42.694;23.346;2024-02-14T01:03:19;9.00;;;4.23;;
77287;SDS011;66345;42.694;23.346;2024-02-14T01:05:44;8.03;;;4.00;;
77287;SDS011;66345;42.694;23.346;2024-02-14T01:08:10;7.43;;;3.78;;
77287;SDS011;66345;42.694;23.346;2024-02-14T01:10:36;9.70;;;4.00;;
77287;SDS011;66345;42.694;23.346;2024-02-14T01:13:01;8.50;;;3.78;;
77287;SDS011;66345;42.694;23.346;2024-02-14T01:15:27;9.10;;;4.23;;
77287;SDS011;66345;42.694;23.346;2024-02-14T01:17:52;8.53;;;3.90;;
77287;SDS011;66345;42.694;23.346;2024-02-14T01:20:18;7.88;;;3.88;;
77287;SDS011;66345;42.694;23.346;2024-02-14T01:22:44;8.50;;;3.60;;
77287;SDS011;66345;42.694;23.346;2024-02-14T01:25:11;9.27;;;4.55;;
77287;SDS011;66345;42.694;23.346;2024-02-14T01:27:37;8.57;;;4.25;;
77287;SDS011;66345;42.694;23.346;2024-02-14T01:30:02;8.57;;;3.90;;
77287;SDS011;66345;42.694;23.346;2024-02-14T01:32:30;6.93;;;3.17;;
77287;SDS011;66345;42.694;23.346;2024-02-14T01:34:56;8.57;;;3.73;;
77287;SDS011;66345;42.694;23.346;2024-02-14T01:37:21;9.10;;;4.10;;
77287;SDS011;66345;42.694;23.346;2024-02-14T01:39:47;9.27;;;4.20;;
77287;SDS011;66345;42.694;23.346;2024-02-14T01:42:12;9.53;;;4.57;;
77287;SDS011;66345;42.694;23.346;2024-02-14T01:44:37;7.90;;;3.83;;
77287;SDS011;66345;42.694;23.346;2024-02-14T01:47:03;9.27;;;4.45;;
77287;SDS011;66345;42.694;23.346;2024-02-14T01:49:29;8.63;;;3.73;;
77287;SDS011;66345;42.694;23.346;2024-02-14T01:51:57;10.80;;;4.57;;
77287;SDS011;66345;42.694;23.346;2024-02-14T01:54:26;8.05;;;3.80;;
77287;SDS011;66345;42.694;23.346;2024-02-14T01:56:52;9.30;;;4.63;;
77287;SDS011;66345;42.694;23.346;2024-02-14T01:59:20;9.18;;;4.07;;
77287;SDS011;66345;42.694;23.346;2024-02-14T02:01:45;10.73;;;5.28;;
77287;SDS011;66345;42.694;23.346;2024-02-14T02:04:11;10.20;;;4.65;;
77287;SDS011;66345;42.694;23.346;2024-02-14T02:06:37;10.37;;;4.67;;
77287;SDS011;66345;42.694;23.346;2024-02-14T02:09:06;9.68;;;5.03;;
77287;SDS011;66345;42.694;23.346;2024-02-14T02:11:42;7.70;;;3.75;;
77287;SDS011;66345;42.694;23.346;2024-02-14T02:14:10;9.50;;;5.20;;
77287;SDS011;66345;42.694;23.346;2024-02-14T02:16:37;10.48;;;4.40;;
77287;SDS011;66345;42.694;23.346;2024-02-14T02:19:03;10.73;;;5.10;;
77287;SDS011;66345;42.694;23.346;2024-02-14T02:21:33;10.52;;;5.35;;
77287;SDS011;66345;42.694;23.346;2024-02-14T02:24:00;9.57;;;4.20;;
77287;SDS011;66345;42.694;23.346;2024-02-14T02:26:26;10.55;;;5.07;;
77287;SDS011;66345;42.694;23.346;2024-02-14T02:28:52;11.35;;;4.63;;
77287;SDS011;66345;42.694;23.346;2024-02-14T02:31:18;7.97;;;4.20;;
77287;SDS011;66345;42.694;23.346;2024-02-14T02:33:45;10.13;;;4.65;;
77287;SDS011;66345;42.694;23.346;2024-02-14T02:36:10;9.82;;;4.75;;
77287;SDS011;66345;42.694;23.346;2024-02-14T02:38:36;9.23;;;5.03;;
77287;SDS011;66345;42.694;23.346;2024-02-14T02:41:02;7.63;;;3.73;;
77287;SDS011;66345;42.694;23.346;2024-02-14T02:43:31;12.32;;;4.78;;
77287;SDS011;66345;42.694;23.346;2024-02-14T02:45:57;9.88;;;5.10;;
77287;SDS011;66345;42.694;23.346;2024-02-14T02:48:23;8.73;;;3.57;;
77287;SDS011;66345;42.694;23.346;2024-02-14T02:50:49;9.68;;;4.63;;
77287;SDS011;66345;42.694;23.346;2024-02-14T02:53:15;9.75;;;4.90;;
77287;SDS011;66345;42.694;23.346;2024-02-14T02:55:41;9.50;;;4.07;;
77287;SDS011;66345;42.694;23.346;2024-02-14T02:58:06;9.48;;;5.20;;
77287;SDS011;66345;42.694;23.346;2024-02-14T03:00:32;10.40;;;4.73;;
77287;SDS011;66345;42.694;23.346;2024-02-14T03:02:58;9.63;;;4.55;;
77287;SDS011;66345;42.694;23.346;2024-02-14T03:05:24;10.70;;;5.13;;
77287;SDS011;66345;42.694;23.346;2024-02-14T03:07:49;10.40;;;4.68;;
77287;SDS011;66345;42.694;23.346;2024-02-14T03:10:16;9.57;;;4.22;;
77287;SDS011;66345;42.694;23.346;2024-02-14T03:12:49;10.00;;;5.17;;
77287;SDS011;66345;42.694;23.346;2024-02-14T03:15:14;8.77;;;4.30;;
77287;SDS011;66345;42.694;23.346;2024-02-14T03:17:40;11.60;;;5.43;;
77287;SDS011;66345;42.694;23.346;2024-02-14T03:20:07;9.60;;;5.10;;
77287;SDS011;66345;42.694;23.346;2024-02-14T03:22:40;6.05;;;2.08;;
77287;SDS011;66345;42.694;23.346;2024-02-14T03:25:13;9.53;;;5.10;;
77287;SDS011;66345;42.694;23.346;2024-02-14T03:27:41;11.13;;;5.30;;
77287;SDS011;66345;42.694;23.346;2024-02-14T03:30:07;11.70;;;4.97;;
77287;SDS011;66345;42.694;23.346;2024-02-14T03:32:33;10.07;;;4.68;;
77287;SDS011;66345;42.694;23.346;2024-02-14T03:34:59;10.53;;;5.43;;
77287;SDS011;66345;42.694;23.346;2024-02-14T03:37:26;10.52;;;5.18;;
77287;SDS011;66345;42.694;23.346;2024-02-14T03:39:52;10.93;;;5.50;;
77287;SDS011;66345;42.694;23.346;2024-02-14T03:42:18;10.10;;;4.87;;
77287;SDS011;66345;42.694;23.346;2024-02-14T03:44:44;10.27;;;5.00;;
77287;SDS011;66345;42.694;23.346;2024-02-14T03:47:10;8.65;;;4.63;;
77287;SDS011;66345;42.694;23.346;2024-02-14T03:49:37;10.60;;;5.45;;
77287;SDS011;66345;42.694;23.346;2024-02-14T03:52:03;11.30;;;5.30;;
77287;SDS011;66345;42.694;23.346;2024-02-14T03:54:35;8.45;;;3.92;;
77287;SDS011;66345;42.694;23.346;2024-02-14T03:57:03;8.65;;;3.92;;
77287;SDS011;66345;42.694;23.346;2024-02-14T03:59:32;9.68;;;4.75;;
77287;SDS011;66345;42.694;23.346;2024-02-14T04:02:00;8.82;;;4.43;;
77287;SDS011;66345;42.694;23.346;2024-02-14T04:04:25;10.40;;;5.17;;
77287;SDS011;66345;42.694;23.346;2024-02-14T04:06:51;10.40;;;4.17;;
77287;SDS011;66345;42.694;23.346;2024-02-14T04:09:17;8.80;;;3.75;;
77287;SDS011;66345;42.694;23.346;2024-02-14T04:11:42;9.67;;;4.93;;
77287;SDS011;66345;42.694;23.346;2024-02-14T04:14:08;11.43;;;5.80;;
77287;SDS011;66345;42.694;23.346;2024-02-14T04:16:34;10.52;;;4.78;;
77287;SDS011;66345;42.694;23.346;2024-02-14T04:19:01;11.88;;;5.38;;
77287;SDS011;66345;42.694;23.346;2024-02-14T04:21:27;11.33;;;6.03;;
77287;SDS011;66345;42.694;23.346;2024-02-14T04:23:54;10.18;;;4.93;;
77287;SDS011;66345;42.694;23.346;2024-02-14T04:26:20;12.20;;;5.80;;
77287;SDS011;66345;42.694;23.346;2024-02-14T04:28:46;12.30;;;6.05;;
77287;SDS011;66345;42.694;23.346;2024-02-14T04:31:11;10.97;;;5.13;;
77287;SDS011;66345;42.694;23.346;2024-02-14T04:33:37;9.82;;;5.03;;
77287;SDS011;66345;42.694;23.346;2024-02-14T04:36:02;12.30;;;6.60;;
77287;SDS011;66345;42.694;23.346;2024-02-14T04:38:30;13.30;;;6.50;;
77287;SDS011;66345;42.694;23.346;2024-02-14T04:40:56;12.83;;;6.63;;
77287;SDS011;66345;42.694;23.346;2024-02-14T04:43:23;11.60;;;6.30;;
77287;SDS011;66345;42.694;23.346;2024-02-14T04:45:49;10.60;;;5.30;;
77287;SDS011;66345;42.694;23.346;2024-02-14T04:48:15;11.45;;;5.65;;
77287;SDS011;66345;42.694;23.346;2024-02-14T04:50:41;12.07;;;6.32;;
77287;SDS011;66345;42.694;23.346;2024-02-14T04:53:07;11.37;;;6.57;;
77287;SDS011;66345;42.694;23.346;2024-02-14T04:55:32;12.00;;;6.85;;
77287;SDS011;66345;42.694;23.346;2024-02-14T04:57:58;12.23;;;6.50;;
77287;SDS011;66345;42.694;23.346;2024-02-14T05:00:24;15.25;;;6.90;;
77287;SDS011;66345;42.694;23.346;2024-02-14T05:02:53;12.57;;;6.80;;
77287;SDS011;66345;42.694;23.346;2024-02-14T05:05:18;14.93;;;7.40;;
77287;SDS011;66345;42.694;23.346;2024-02-14T05:07:45;12.52;;;6.38;;
77287;SDS011;66345;42.694;23.346;2024-02-14T05:10:11;14.07;;;7.28;;
77287;SDS011;66345;42.694;23.346;2024-02-14T05:12:37;12.83;;;5.60;;
77287;SDS011;66345;42.694;23.346;2024-02-14T05:15:02;11.23;;;5.63;;
77287;SDS011;66345;42.694;23.346;2024-02-14T05:17:29;12.10;;;6.43;;
77287;SDS011;66345;42.694;23.346;2024-02-14T05:19:55;13.43;;;6.85;;
77287;SDS011;66345;42.694;23.346;2024-02-14T05:22:21;15.10;;;6.95;;
77287;SDS011;66345;42.694;23.346;2024-02-14T05:24:47;15.00;;;6.93;;
77287;SDS011;66345;42.694;23.346;2024-02-14T05:27:13;14.05;;;7.43;;
77287;SDS011;66345;42.694;23.346;2024-02-14T05:29:38;15.23;;;7.77;;
77287;SDS011;66345;42.694;23.346;2024-02-14T05:32:04;13.67;;;7.17;;
77287;SDS011;66345;42.694;23.346;2024-02-14T05:34:30;11.25;;;5.38;;
77287;SDS011;66345;42.694;23.346;2024-02-14T05:36:55;14.27;;;7.13;;
77287;SDS011;66345;42.694;23.346;2024-02-14T05:39:21;12.73;;;7.00;;
77287;SDS011;66345;42.694;23.346;2024-02-14T05:41:47;12.67;;;5.77;;
77287;SDS011;66345;42.694;23.346;2024-02-14T05:44:14;12.90;;;7.18;;
77287;SDS011;66345;42.694;23.346;2024-02-14T05:46:40;14.02;;;7.28;;
77287;SDS011;66345;42.694;23.346;2024-02-14T05:49:06;14.77;;;7.60;;
77287;SDS011;66345;42.694;23.346;2024-02-14T05:51:31;12.02;;;6.97;;
77287;SDS011;66345;42.694;23.346;2024-02-14T05:53:57;15.97;;;6.40;;
77287;SDS011;66345;42.694;23.346;2024-02-14T05:56:22;13.37;;;7.53;;
77287;SDS011;66345;42.694;23.346;2024-02-14T05:58:48;15.27;;;7.68;;
77287;SDS011;66345;42.694;23.346;2024-02-14T06:01:13;16.97;;;7.47;;
77287;SDS011;66345;42.694;23.346;2024-02-14T06:03:41;13.00;;;7.33;;
77287;SDS011;66345;42.694;23.346;2024-02-14T06:06:07;17.30;;;7.68;;
77287;SDS011;66345;42.694;23.346;2024-02-14T06:08:32;15.00;;;7.13;;
77287;SDS011;66345;42.694;23.346;2024-02-14T06:10:57;14.70;;;7.77;;
77287;SDS011;66345;42.694;23.346;2024-02-14T06:13:23;13.95;;;6.95;;
77287;SDS011;66345;42.694;23.346;2024-02-14T06:15:48;12.93;;;7.03;;
77287;SDS011;66345;42.694;23.346;2024-02-14T06:18:14;13.87;;;7.47;;
77287;SDS011;66345;42.694;23.346;2024-02-14T06:20:41;12.52;;;6.43;;
77287;SDS011;66345;42.694;23.346;2024-02-14T06:23:06;14.68;;;7.65;;
77287;SDS011;66345;42.694;23.346;2024-02-14T06:25:33;12.45;;;6.60;;
77287;SDS011;66345;42.694;23.346;2024-02-14T06:27:58;14.35;;;6.43;;
77287;SDS011;66345;42.694;23.346;2024-02-14T06:30:24;15.73;;;7.30;;
77287;SDS011;66345;42.694;23.346;2024-02-14T06:32:49;16.63;;;7.70;;
77287;SDS011;66345;42.694;23.346;2024-02-14T06:35:15;16.13;;;7.40;;
77287;SDS011;66345;42.694;23.346;2024-02-14T06:37:43;14.15;;;6.30;;
77287;SDS011;66345;42.694;23.346;2024-02-14T06:40:10;14.80;;;6.33;;
77287;SDS011;66345;42.694;23.346;2024-02-14T06:42:36;12.88;;;7.22;;
77287;SDS011;66345;42.694;23.346;2024-02-14T06:45:01;15.33;;;7.23;;
77287;SDS011;66345;42.694;23.346;2024-02-14T06:47:27;12.07;;;6.35;;
77287;SDS011;66345;42.694;23.346;2024-02-14T06:49:55;13.77;;;6.13;;
77287;SDS011;66345;42.694;23.346;2024-02-14T06:52:21;15.13;;;7.15;;
77287;SDS011;66345;42.694;23.346;2024-02-14T06:54:46;13.32;;;6.10;;
77287;SDS011;66345;42.694;23.346;2024-02-14T06:57:13;16.80;;;6.63;;
77287;SDS011;66345;42.694;23.346;2024-02-14T06:59:39;9.98;;;5.28;;
77287;SDS011;66345;42.694;23.346;2024-02-14T07:02:05;13.18;;;6.47;;
77287;SDS011;66345;42.694;23.346;2024-02-14T07:04:31;14.47;;;6.93;;
77287;SDS011;66345;42.694;23.346;2024-02-14T07:06:56;12.13;;;6.47;;
77287;SDS011;66345;42.694;23.346;2024-02-14T07:09:22;14.43;;;6.47;;
77287;SDS011;66345;42.694;23.346;2024-02-14T07:11:48;14.65;;;5.95;;
77287;SDS011;66345;42.694;23.346;2024-02-14T07:14:14;15.80;;;8.70;;
77287;SDS011;66345;42.694;23.346;2024-02-14T07:16:39;10.38;;;5.28;;
77287;SDS011;66345;42.694;23.346;2024-02-14T07:19:05;13.17;;;6.90;;
77287;SDS011;66345;42.694;23.346;2024-02-14T07:21:30;13.33;;;6.90;;
77287;SDS011;66345;42.694;23.346;2024-02-14T07:23:58;12.30;;;5.60;;
77287;SDS011;66345;42.694;23.346;2024-02-14T07:26:23;10.67;;;5.43;;
77287;SDS011;66345;42.694;23.346;2024-02-14T07:28:49;10.98;;;4.75;;
77287;SDS011;66345;42.694;23.346;2024-02-14T07:31:14;13.80;;;5.87;;
77287;SDS011;66345;42.694;23.346;2024-02-14T07:33:59;10.77;;;5.50;;
77287;SDS011;66345;42.694;23.346;2024-02-14T07:36:31;12.45;;;6.05;;
77287;SDS011;66345;42.694;23.346;2024-02-14T07:39:04;12.13;;;5.47;;
77287;SDS011;66345;42.694;23.346;2024-02-14T07:41:33;11.02;;;3.65;;
77287;SDS011;66345;42.694;23.346;2024-02-14T07:44:03;9.68;;;4.78;;
77287;SDS011;66345;42.694;23.346;2024-02-14T07:46:29;9.82;;;4.72;;
77287;SDS011;66345;42.694;23.346;2024-02-14T07:48:56;9.77;;;5.00;;
77287;SDS011;66345;42.694;23.346;2024-02-14T07:51:22;9.23;;;5.13;;
77287;SDS011;66345;42.694;23.346;2024-02-14T07:53:48;8.68;;;4.30;;
77287;SDS011;66345;42.694;23.346;2024-02-14T07:56:15;10.93;;;5.70;;
77287;SDS011;66345;42.694;23.346;2024-02-14T07:58:43;9.73;;;5.07;;
77287;SDS011;66345;42.694;23.346;2024-02-14T08:01:09;10.45;;;5.38;;
77287;SDS011;66345;42.694;23.346;2024-02-14T08:03:34;11.40;;;5.73;;
77287;SDS011;66345;42.694;23.346;2024-02-14T08:06:00;11.47;;;5.53;;
77287;SDS011;66345;42.694;23.346;2024-02-14T08:08:25;8.95;;;3.70;;
77287;SDS011;66345;42.694;23.346;2024-02-14T08:10:52;10.68;;;5.38;;
77287;SDS011;66345;42.694;23.346;2024-02-14T08:13:20;12.55;;;5.38;;
77287;SDS011;66345;42.694;23.346;2024-02-14T08:15:45;7.90;;;3.70;;
77287;SDS011;66345;42.694;23.346;2024-02-14T08:18:11;12.73;;;5.18;;
77287;SDS011;66345;42.694;23.346;2024-02-14T08:20:37;11.63;;;5.67;;
77287;SDS011;66345;42.694;23.346;2024-02-14T08:23:03;11.27;;;4.93;;
77287;SDS011;66345;42.694;23.346;2024-02-14T08:25:29;10.45;;;5.40;;
77287;SDS011;66345;42.694;23.346;2024-02-14T08:27:55;11.07;;;5.30;;
77287;SDS011;66345;42.694;23.346;2024-02-14T08:30:21;9.55;;;5.18;;
77287;SDS011;66345;42.694;23.346;2024-02-14T08:35:38;8.77;;;4.43;;
77287;SDS011;66345;42.694;23.346;2024-02-14T08:38:04;10.18;;;5.55;;
77287;SDS011;66345;42.694;23.346;2024-02-14T08:40:31;10.57;;;5.77;;
77287;SDS011;66345;42.694;23.346;2024-02-14T08:42:57;10.45;;;5.30;;
77287;SDS011;66345;42.694;23.346;2024-02-14T08:45:32;8.95;;;4.95;;
77287;SDS011;66345;42.694;23.346;2024-02-14T08:48:00;9.55;;;4.68;;
77287;SDS011;66345;42.694;23.346;2024-02-14T08:50:26;16.30;;;5.67;;
77287;SDS011;66345;42.694;23.346;2024-02-14T08:52:52;10.32;;;5.13;;
77287;SDS011;66345;42.694;23.346;2024-02-14T08:55:17;10.97;;;4.83;;
77287;SDS011;66345;42.694;23.346;2024-02-14T08:57:43;12.68;;;4.63;;
77287;SDS011;66345;42.694;23.346;2024-02-14T09:00:10;10.30;;;4.80;;
77287;SDS011;66345;42.694;23.346;2024-02-14T09:02:36;10.45;;;4.90;;
77287;SDS011;66345;42.694;23.346;2024-02-14T09:05:01;10.48;;;5.43;;
77287;SDS011;66345;42.694;23.346;2024-02-14T09:07:29;12.13;;;5.17;;
77287;SDS011;66345;42.694;23.346;2024-02-14T09:09:56;10.30;;;4.82;;
77287;SDS011;66345;42.694;23.346;2024-02-14T09:12:22;9.32;;;4.28;;
77287;SDS011;66345;42.694;23.346;2024-02-14T09:14:47;11.50;;;5.87;;
77287;SDS011;66345;42.694;23.346;2024-02-14T09:17:13;11.35;;;4.85;;
77287;SDS011;66345;42.694;23.346;2024-02-14T09:19:40;11.65;;;5.97;;
77287;SDS011;66345;42.694;23.346;2024-02-14T09:22:05;11.50;;;4.83;;
77287;SDS011;66345;42.694;23.346;2024-02-14T09:24:31;14.43;;;4.93;;
77287;SDS011;66345;42.694;23.346;2024-02-14T09:26:57;11.95;;;5.72;;
77287;SDS011;66345;42.694;23.346;2024-02-14T09:29:24;12.18;;;5.97;;
77287;SDS011;66345;42.694;23.346;2024-02-14T09:31:50;10.50;;;5.37;;
77287;SDS011;66345;42.694;23.346;2024-02-14T09:34:16;9.40;;;5.13;;
77287;SDS011;66345;42.694;23.346;2024-02-14T09:36:44;11.15;;;5.20;;
77287;SDS011;66345;42.694;23.346;2024-02-14T09:39:10;9.13;;;4.87;;
77287;SDS011;66345;42.694;23.346;2024-02-14T09:41:40;14.43;;;5.38;;
77287;SDS011;66345;42.694;23.346;2024-02-14T09:44:08;10.18;;;4.75;;
77287;SDS011;66345;42.694;23.346;2024-02-14T09:46:35;9.90;;;4.77;;
77287;SDS011;66345;42.694;23.346;2024-02-14T09:49:02;10.25;;;5.25;;
77287;SDS011;66345;42.694;23.346;2024-02-14T09:51:29;7.60;;;4.00;;
77287;SDS011;66345;42.694;23.346;2024-02-14T09:53:56;12.27;;;5.70;;
77287;SDS011;66345;42.694;23.346;2024-02-14T09:56:25;8.13;;;4.00;;
77287;SDS011;66345;42.694;23.346;2024-02-14T09:58:52;11.10;;;4.80;;
77287;SDS011;66345;42.694;23.346;2024-02-14T10:01:24;9.55;;;4.00;;
77287;SDS011;66345;42.694;23.346;2024-02-14T10:03:50;11.98;;;5.57;;
77287;SDS011;66345;42.694;23.346;2024-02-14T10:06:19;11.13;;;4.30;;
77287;SDS011;66345;42.694;23.346;2024-02-14T10:08:47;11.93;;;4.55;;
77287;SDS011;66345;42.694;23.346;2024-02-14T10:11:16;10.70;;;4.90;;
77287;SDS011;66345;42.694;23.346;2024-02-14T10:13:46;9.75;;;4.30;;
77287;SDS011;66345;42.694;23.346;2024-02-14T10:16:13;8.83;;;4.57;;
77287;SDS011;66345;42.694;23.346;2024-02-14T10:18:39;10.07;;;5.00;;
77287;SDS011;66345;42.694;23.346;2024-02-14T10:21:05;9.55;;;4.70;;
77287;SDS011;66345;42.694;23.346;2024-02-14T10:23:30;10.17;;;4.17;;
77287;SDS011;66345;42.694;23.346;2024-02-14T10:25:57;8.68;;;4.40;;
77287;SDS011;66345;42.694;23.346;2024-02-14T10:28:23;10.53;;;4.47;;
77287;SDS011;66345;42.694;23.346;2024-02-14T10:30:49;9.70;;;4.03;;
77287;SDS011;66345;42.694;23.346;2024-02-14T10:33:15;9.35;;;4.50;;
77287;SDS011;66345;42.694;23.346;2024-02-14T10:35:41;8.67;;;4.60;;
77287;SDS011;66345;42.694;23.346;2024-02-14T10:38:07;8.13;;;4.22;;
77287;SDS011;66345;42.694;23.346;2024-02-14T10:40:34;10.18;;;4.45;;
77287;SDS011;66345;42.694;23.346;2024-02-14T10:43:01;8.90;;;4.82;;
77287;SDS011;66345;42.694;23.346;2024-02-14T10:45:27;10.68;;;5.07;;
77287;SDS011;66345;42.694;23.346;2024-02-14T10:47:53;7.50;;;3.00;;
77287;SDS011;66345;42.694;23.346;2024-02-14T10:50:22;9.98;;;4.63;;
77287;SDS011;66345;42.694;23.346;2024-02-14T10:52:49;10.65;;;5.55;;
77287;SDS011;66345;42.694;23.346;2024-02-14T10:55:22;10.57;;;3.80;;
77287;SDS011;66345;42.694;23.346;2024-02-14T10:57:52;9.90;;;4.60;;
77287;SDS011;66345;42.694;23.346;2024-02-14T11:00:19;8.30;;;4.43;;
77287;SDS011;66345;42.694;23.346;2024-02-14T11:02:45;9.88;;;4.63;;
77287;SDS011;66345;42.694;23.346;2024-02-14T11:05:15;10.68;;;4.30;;
77287;SDS011;66345;42.694;23.346;2024-02-14T11:07:44;8.80;;;4.73;;
77287;SDS011;66345;42.694;23.346;2024-02-14T11:10:15;10.95;;;4.82;;
77287;SDS011;66345;42.694;23.346;2024-02-14T11:12:41;9.48;;;4.55;;
77287;SDS011;66345;42.694;23.346;2024-02-14T11:17:46;9.67;;;5.13;;
77287;SDS011;66345;42.694;23.346;2024-02-14T11:20:30;8.07;;;4.18;;
77287;SDS011;66345;42.694;23.346;2024-02-14T11:22:57;13.00;;;5.00;;
77287;SDS011;66345;42.694;23.346;2024-02-14T11:25:28;5.32;;;2.75;;
77287;SDS011;66345;42.694;23.346;2024-02-14T11:27:56;9.98;;;5.25;;
77287;SDS011;66345;42.694;23.346;2024-02-14T11:30:29;10.00;;;5.17;;
77287;SDS011;66345;42.694;23.346;2024-02-14T11:35:46;8.50;;;4.75;;
77287;SDS011;66345;42.694;23.346;2024-02-14T11:38:15;9.60;;;4.68;;
77287;SDS011;66345;42.694;23.346;2024-02-14T11:40:40;9.23;;;3.60;;
77287;SDS011;66345;42.694;23.346;2024-02-14T11:43:13;11.35;;;5.40;;
77287;SDS011;66345;42.694;23.346;2024-02-14T11:45:41;10.23;;;4.53;;
77287;SDS011;66345;42.694;23.346;2024-02-14T11:48:13;8.90;;;4.50;;
77287;SDS011;66345;42.694;23.346;2024-02-14T11:50:40;9.07;;;4.60;;
77287;SDS011;66345;42.694;23.346;2024-02-14T11:53:13;8.77;;;4.60;;
77287;SDS011;66345;42.694;23.346;2024-02-14T11:55:42;9.93;;;5.05;;
77287;SDS011;66345;42.694;23.346;2024-02-14T11:58:11;12.73;;;4.83;;
77287;SDS011;66345;42.694;23.346;2024-02-14T12:00:40;13.75;;;5.25;;
77287;SDS011;66345;42.694;23.346;2024-02-14T12:03:11;10.82;;;4.53;;
77287;SDS011;66345;42.694;23.346;2024-02-14T12:05:47;12.95;;;5.22;;
77287;SDS011;66345;42.694;23.346;2024-02-14T12:08:15;9.73;;;4.28;;
77287;SDS011;66345;42.694;23.346;2024-02-14T12:10:43;9.57;;;4.80;;
77287;SDS011;66345;42.694;23.346;2024-02-14T12:13:13;8.65;;;4.75;;
77287;SDS011;66345;42.694;23.346;2024-02-14T12:15:44;11.45;;;5.15;;
77287;SDS011;66345;42.694;23.346;2024-02-14T12:18:10;10.85;;;5.03;;
77287;SDS011;66345;42.694;23.346;2024-02-14T12:20:39;11.32;;;5.30;;
77287;SDS011;66345;42.694;23.346;2024-02-14T12:23:04;8.80;;;4.67;;
77287;SDS011;66345;42.694;23.346;2024-02-14T12:25:31;9.55;;;4.28;;
77287;SDS011;66345;42.694;23.346;2024-02-14T12:27:56;10.93;;;5.38;;
77287;SDS011;66345;42.694;23.346;2024-02-14T12:30:35;9.30;;;3.70;;
77287;SDS011;66345;42.694;23.346;2024-02-14T12:33:10;10.95;;;4.70;;
77287;SDS011;66345;42.694;23.346;2024-02-14T12:35:39;11.15;;;4.75;;
77287;SDS011;66345;42.694;23.346;2024-02-14T12:38:08;9.60;;;4.20;;
77287;SDS011;66345;42.694;23.346;2024-02-14T12:40:37;10.73;;;4.75;;
77287;SDS011;66345;42.694;23.346;2024-02-14T12:43:03;10.40;;;4.87;;
77287;SDS011;66345;42.694;23.346;2024-02-14T12:45:31;9.52;;;4.15;;
77287;SDS011;66345;42.694;23.346;2024-02-14T12:47:56;10.48;;;5.20;;
77287;SDS011;66345;42.694;23.346;2024-02-14T12:50:22;9.97;;;4.87;;
77287;SDS011;66345;42.694;23.346;2024-02-14T12:52:48;11.45;;;4.80;;
77287;SDS011;66345;42.694;23.346;2024-02-14T12:55:13;10.87;;;4.77;;
77287;SDS011;66345;42.694;23.346;2024-02-14T12:57:40;10.32;;;4.78;;
77287;SDS011;66345;42.694;23.346;2024-02-14T13:00:06;10.63;;;4.70;;
77287;SDS011;66345;42.694;23.346;2024-02-14T13:02:34;10.80;;;4.00;;
77287;SDS011;66345;42.694;23.346;2024-02-14T13:05:05;11.90;;;4.43;;
77287;SDS011;66345;42.694;23.346;2024-02-14T13:07:32;12.43;;;4.15;;
77287;SDS011;66345;42.694;23.346;2024-02-14T13:09:58;11.00;;;4.43;;
77287;SDS011;66345;42.694;23.346;2024-02-14T13:12:23;8.05;;;4.53;;
77287;SDS011;66345;42.694;23.346;2024-02-14T13:14:48;8.97;;;4.40;;
77287;SDS011;66345;42.694;23.346;2024-02-14T13:17:14;12.17;;;4.37;;
77287;SDS011;66345;42.694;23.346;2024-02-14T13:19:40;10.00;;;4.40;;
77287;SDS011;66345;42.694;23.346;2024-02-14T13:22:07;10.33;;;4.60;;
77287;SDS011;66345;42.694;23.346;2024-02-14T13:24:33;13.35;;;5.15;;
77287;SDS011;66345;42.694;23.346;2024-02-14T13:26:59;10.48;;;4.97;;
77287;SDS011;66345;42.694;23.346;2024-02-14T13:29:24;11.20;;;4.75;;
77287;SDS011;66345;42.694;23.346;2024-02-14T13:31:50;10.47;;;5.20;;
77287;SDS011;66345;42.694;23.346;2024-02-14T13:34:16;11.13;;;4.80;;
77287;SDS011;66345;42.694;23.346;2024-02-14T13:36:44;10.32;;;4.35;;
77287;SDS011;66345;42.694;23.346;2024-02-14T13:39:10;9.53;;;4.63;;
77287;SDS011;66345;42.694;23.346;2024-02-14T13:41:37;8.52;;;4.30;;
77287;SDS011;66345;42.694;23.346;2024-02-14T13:44:04;9.43;;;4.85;;
77287;SDS011;66345;42.694;23.346;2024-02-14T13:46:31;13.07;;;4.95;;
77287;SDS011;66345;42.694;23.346;2024-02-14T13:48:57;12.60;;;4.83;;
77287;SDS011;66345;42.694;23.346;2024-02-14T13:51:23;10.40;;;4.93;;
77287;SDS011;66345;42.694;23.346;2024-02-14T13:53:48;11.13;;;4.60;;
77287;SDS011;66345;42.694;23.346;2024-02-14T13:56:14;9.93;;;3.83;;
77287;SDS011;66345;42.694;23.346;2024-02-14T13:58:41;8.65;;;4.32;;
77287;SDS011;66345;42.694;23.346;2024-02-14T14:01:07;9.90;;;4.17;;
77287;SDS011;66345;42.694;23.346;2024-02-14T14:03:33;10.60;;;4.55;;
77287;SDS011;66345;42.694;23.346;2024-02-14T14:06:02;10.07;;;4.57;;
77287;SDS011;66345;42.694;23.346;2024-02-14T14:08:30;12.00;;;4.93;;
77287;SDS011;66345;42.694;23.346;2024-02-14T14:10:56;12.63;;;5.03;;
77287;SDS011;66345;42.694;23.346;2024-02-14T14:13:24;10.73;;;5.10;;
77287;SDS011;66345;42.694;23.346;2024-02-14T14:15:54;10.25;;;4.82;;
77287;SDS011;66345;42.694;23.346;2024-02-14T14:18:20;9.57;;;4.50;;
77287;SDS011;66345;42.694;23.346;2024-02-14T14:20:46;9.00;;;4.70;;
77287;SDS011;66345;42.694;23.346;2024-02-14T14:23:11;10.95;;;5.07;;
77287;SDS011;66345;42.694;23.346;2024-02-14T14:25:37;11.33;;;4.43;;
77287;SDS011;66345;42.694;23.346;2024-02-14T14:28:03;8.70;;;4.30;;
77287;SDS011;66345;42.694;23.346;2024-02-14T14:30:29;9.73;;;4.43;;